createdAt,value
2018-11-03T00:00:37.861Z,-1.10
2018-11-03T00:03:10.262Z,-1.10
2018-11-03T00:05:44.766Z,-1.10
2018-11-03T00:08:17.852Z,-1.10
2018-11-03T00:11:12.731Z,-1.10
2018-11-03T00:13:45.421Z,-1.20
2018-11-03T00:16:18.690Z,-1.20
2018-11-03T00:18:57.790Z,-1.10
2018-11-03T00:21:30.054Z,-1.00
2018-11-03T00:24:02.696Z,-1.00
2018-11-03T00:26:35.807Z,-1.10
2018-11-03T00:29:10.514Z,-1.10
2018-11-03T00:31:43.139Z,-1.10
2018-11-03T00:34:16.096Z,-1.10
2018-11-03T00:36:49.370Z,-1.10
2018-11-03T00:39:22.018Z,-1.00
2018-11-03T00:41:54.815Z,-1.00
2018-11-03T00:44:28.926Z,-1.10
2018-11-03T00:47:02.405Z,-1.10
2018-11-03T00:49:34.807Z,-1.10
2018-11-03T00:52:07.077Z,-1.00
2018-11-03T00:54:39.157Z,-1.00
2018-11-03T00:57:11.099Z,-1.10
2018-11-03T00:59:43.919Z,-1.10
2018-11-03T01:02:17.996Z,-1.10
2018-11-03T01:04:50.206Z,-1.10
2018-11-03T01:07:22.415Z,-1.10
2018-11-03T01:09:55.507Z,-1.10
2018-11-03T01:12:28.278Z,-1.00
2018-11-03T01:15:01.157Z,-0.90
2018-11-03T01:17:33.386Z,-0.90
2018-11-03T01:20:05.640Z,-0.90
2018-11-03T01:22:38.396Z,-0.70
2018-11-03T01:25:10.971Z,-0.60
2018-11-03T01:27:43.316Z,-0.50
2018-11-03T01:30:16.784Z,-0.40
2018-11-03T01:32:48.978Z,-0.50
2018-11-03T01:35:22.098Z,-0.50
2018-11-03T01:37:54.779Z,-0.60
2018-11-03T01:40:27.545Z,-0.60
2018-11-03T01:42:59.778Z,-0.70
2018-11-03T01:45:32.441Z,-0.70
2018-11-03T01:48:05.424Z,-0.70
2018-11-03T01:50:37.745Z,-0.70
2018-11-03T01:53:10.326Z,-0.70
2018-11-03T01:55:42.934Z,-0.80
2018-11-03T01:58:15.138Z,-0.80
2018-11-03T02:00:47.752Z,-0.80
2018-11-03T02:03:19.960Z,-0.90
2018-11-03T02:05:53.821Z,-0.80
2018-11-03T02:08:27.124Z,-0.80
2018-11-03T02:10:59.536Z,-0.70
2018-11-03T02:13:32.253Z,-0.60
2018-11-03T02:16:04.413Z,-0.50
2018-11-03T02:18:37.051Z,-0.50
2018-11-03T02:21:11.093Z,-0.50
2018-11-03T02:23:43.868Z,-0.50
2018-11-03T02:26:16.303Z,-0.40
2018-11-03T02:28:49.267Z,-0.40
2018-11-03T02:31:22.038Z,-0.30
2018-11-03T02:33:54.429Z,-0.40
2018-11-03T02:36:26.802Z,-0.40
2018-11-03T02:38:59.323Z,-0.50
2018-11-03T02:41:31.296Z,-0.60
2018-11-03T02:44:03.590Z,-0.60
2018-11-03T02:46:36.393Z,-0.70
2018-11-03T02:49:09.739Z,-0.70
2018-11-03T02:51:43.692Z,-0.40
2018-11-03T02:54:15.449Z,-0.30
2018-11-03T02:56:47.604Z,-0.20
2018-11-03T02:59:20.218Z,-0.20
2018-11-03T03:01:52.698Z,-0.20
2018-11-03T03:04:25.531Z,-0.30
2018-11-03T03:06:58.543Z,-0.30
2018-11-03T03:09:30.921Z,-0.20
2018-11-03T03:12:09.439Z,-0.10
2018-11-03T03:14:42.865Z,-0.20
2018-11-03T03:17:15.300Z,-0.10
2018-11-03T03:19:47.381Z,-0.20
2018-11-03T03:22:19.194Z,0.00
2018-11-03T03:24:51.726Z,-0.10
2018-11-03T03:27:24.122Z,-0.20
2018-11-03T03:29:56.021Z,-0.20
2018-11-03T03:32:28.100Z,-0.20
2018-11-03T03:35:00.320Z,-0.30
2018-11-03T03:37:32.886Z,-0.40
2018-11-03T03:40:05.681Z,-0.50
2018-11-03T03:42:38.285Z,-0.60
2018-11-03T03:45:11.432Z,-0.60
2018-11-03T03:47:44.031Z,-0.60
2018-11-03T03:50:17.695Z,-0.70
2018-11-03T03:52:50.632Z,-0.70
2018-11-03T03:55:22.797Z,-0.60
2018-11-03T03:57:55.817Z,-0.60
2018-11-03T04:00:28.808Z,-0.70
2018-11-03T04:03:01.424Z,-0.50
2018-11-03T04:05:33.747Z,-0.30
2018-11-03T04:08:17.960Z,-0.40
2018-11-03T04:10:50.505Z,-0.50
2018-11-03T04:13:23.506Z,-0.60
2018-11-03T04:15:57.432Z,-0.70
2018-11-03T04:18:29.975Z,-0.70
2018-11-03T04:21:03.421Z,-0.90
2018-11-03T04:23:35.928Z,-0.90
2018-11-03T04:26:09.266Z,-1.00
2018-11-03T04:28:41.875Z,-1.00
2018-11-03T04:31:15.395Z,-1.10
2018-11-03T04:33:48.006Z,-1.10
2018-11-03T04:36:22.172Z,-1.10
2018-11-03T04:38:54.628Z,-1.10
2018-11-03T04:41:27.603Z,-1.10
2018-11-03T04:44:01.485Z,-1.20
2018-11-03T04:46:34.345Z,-1.20
2018-11-03T04:49:07.520Z,-1.30
2018-11-03T04:51:40.561Z,-1.40
2018-11-03T04:54:13.412Z,-1.40
2018-11-03T04:56:46.155Z,-1.40
2018-11-03T04:59:18.895Z,-1.50
2018-11-03T05:01:51.879Z,-1.50
2018-11-03T05:04:24.274Z,-1.40
2018-11-03T05:06:56.577Z,-1.40
2018-11-03T05:09:29.151Z,-1.40
2018-11-03T05:12:02.182Z,-1.40
2018-11-03T05:14:34.790Z,-1.40
2018-11-03T05:17:08.032Z,-1.50
2018-11-03T05:19:40.498Z,-1.50
2018-11-03T05:22:14.303Z,-1.50
2018-11-03T05:24:46.911Z,-1.60
2018-11-03T05:27:19.938Z,-1.60
2018-11-03T05:29:53.270Z,-1.70
2018-11-03T05:32:29.489Z,-1.60
2018-11-03T05:35:01.449Z,-1.60
2018-11-03T05:37:34.481Z,-1.60
2018-11-03T05:40:06.920Z,-1.60
2018-11-03T05:42:39.689Z,-1.60
2018-11-03T05:45:12.897Z,-1.60
2018-11-03T05:47:45.453Z,-1.60
2018-11-03T05:50:18.541Z,-1.50
2018-11-03T05:52:50.691Z,-1.40
2018-11-03T05:55:24.144Z,-1.40
2018-11-03T05:57:56.273Z,-1.40
2018-11-03T06:00:29.274Z,-1.40
2018-11-03T06:03:01.640Z,-1.40
2018-11-03T06:05:34.302Z,-1.40
2018-11-03T06:08:06.712Z,-1.50
2018-11-03T06:10:40.035Z,-1.60
2018-11-03T06:13:13.043Z,-1.60
2018-11-03T06:15:45.743Z,-1.50
2018-11-03T06:18:17.544Z,-1.50
2018-11-03T06:20:49.394Z,-1.50
2018-11-03T06:23:21.554Z,-1.30
2018-11-03T06:25:53.397Z,-1.10
2018-11-03T06:28:25.995Z,-1.10
2018-11-03T06:30:58.781Z,-1.10
2018-11-03T06:33:31.338Z,-1.20
2018-11-03T06:36:03.351Z,-1.10
2018-11-03T06:38:35.411Z,-0.90
2018-11-03T06:41:08.437Z,-0.80
2018-11-03T06:43:40.064Z,-0.70
2018-11-03T06:46:11.909Z,-0.70
2018-11-03T06:48:44.102Z,-0.70
2018-11-03T06:51:15.813Z,-0.70
2018-11-03T06:53:50.122Z,-0.70
2018-11-03T06:56:21.860Z,-0.70
2018-11-03T06:58:57.074Z,-0.60
2018-11-03T07:01:30.115Z,-0.60
2018-11-03T07:04:02.443Z,-0.50
2018-11-03T07:06:34.039Z,-0.40
2018-11-03T07:09:08.037Z,-0.30
2018-11-03T07:11:40.281Z,-0.20
2018-11-03T07:14:12.146Z,-0.20
2018-11-03T07:16:44.330Z,-0.10
2018-11-03T07:19:16.217Z,0.00
2018-11-03T07:21:48.140Z,0.20
2018-11-03T07:24:29.871Z,0.30
2018-11-03T07:27:03.430Z,0.50
2018-11-03T07:29:34.467Z,0.60
2018-11-03T07:32:07.374Z,0.80
2018-11-03T07:34:41.710Z,0.90
2018-11-03T07:37:15.880Z,1.10
2018-11-03T07:39:48.065Z,1.40
2018-11-03T07:42:20.503Z,1.50
2018-11-03T07:44:52.822Z,1.60
2018-11-03T07:47:27.083Z,1.60
2018-11-03T07:49:58.854Z,1.70
2018-11-03T07:52:32.160Z,1.80
2018-11-03T07:55:03.854Z,1.80
2018-11-03T07:57:38.356Z,1.80
2018-11-03T08:00:13.572Z,1.90
2018-11-03T08:02:46.299Z,2.00
2018-11-03T08:05:18.672Z,2.10
2018-11-03T08:07:54.390Z,2.20
2018-11-03T08:10:26.757Z,2.40
2018-11-03T08:12:57.143Z,2.50
2018-11-03T08:15:28.076Z,2.50
2018-11-03T08:17:58.005Z,2.50
2018-11-03T08:20:29.364Z,2.70
2018-11-03T08:22:59.243Z,2.80
2018-11-03T08:25:29.485Z,2.80
2018-11-03T08:28:01.795Z,2.90
2018-11-03T08:30:32.025Z,2.90
2018-11-03T08:33:02.359Z,3.00
2018-11-03T08:35:32.638Z,3.00
2018-11-03T08:38:02.658Z,3.20
2018-11-03T08:40:35.951Z,3.20
2018-11-03T08:43:07.692Z,3.40
2018-11-03T08:45:38.286Z,3.60
2018-11-03T08:48:08.716Z,3.70
2018-11-03T08:50:44.311Z,3.90
2018-11-03T08:53:17.354Z,4.00
2018-11-03T08:55:47.675Z,4.20
2018-11-03T08:58:18.978Z,4.20
2018-11-03T09:00:49.780Z,4.40
2018-11-03T09:03:19.870Z,4.60
2018-11-03T09:05:50.490Z,4.70
2018-11-03T09:08:21.189Z,4.90
2018-11-03T09:10:52.302Z,5.00
2018-11-03T09:13:22.657Z,5.10
2018-11-03T09:15:54.879Z,5.30
2018-11-03T09:18:26.194Z,5.50
2018-11-03T09:20:58.497Z,5.60
2018-11-03T09:23:28.686Z,5.70
2018-11-03T09:25:59.626Z,5.90
2018-11-03T09:28:29.626Z,6.10
2018-11-03T09:31:03.948Z,6.20
2018-11-03T09:33:34.004Z,6.30
2018-11-03T09:36:04.107Z,6.50
2018-11-03T09:38:35.377Z,6.60
2018-11-03T09:41:07.044Z,6.60
2018-11-03T09:43:37.262Z,6.70
2018-11-03T09:46:07.808Z,6.80
2018-11-03T09:48:38.160Z,6.90
2018-11-03T09:51:10.878Z,7.00
2018-11-03T09:53:41.538Z,7.10
2018-11-03T09:56:12.656Z,7.20
2018-11-03T09:58:44.230Z,7.40
2018-11-03T10:01:16.067Z,7.50
2018-11-03T10:03:46.055Z,7.50
2018-11-03T10:06:16.327Z,7.60
2018-11-03T10:08:46.513Z,7.70
2018-11-03T10:11:17.163Z,7.90
2018-11-03T10:13:47.573Z,8.20
2018-11-03T10:16:18.439Z,8.30
2018-11-03T10:18:48.478Z,8.50
2018-11-03T10:21:21.146Z,8.70
2018-11-03T10:23:51.568Z,8.70
2018-11-03T10:26:21.892Z,8.80
2018-11-03T10:28:52.103Z,9.10
2018-11-03T10:31:25.094Z,9.30
2018-11-03T10:33:55.723Z,9.40
2018-11-03T10:36:26.845Z,9.70
2018-11-03T10:38:56.690Z,9.90
2018-11-03T10:41:30.647Z,10.20
2018-11-03T10:44:00.723Z,10.70
2018-11-03T10:46:32.013Z,11.50
2018-11-03T10:49:02.285Z,12.20
2018-11-03T10:51:32.406Z,13.00
2018-11-03T10:54:03.327Z,13.60
2018-11-03T10:56:34.792Z,13.90
2018-11-03T10:59:05.325Z,14.40
2018-11-03T11:01:40.496Z,14.60
2018-11-03T11:04:15.685Z,14.90
2018-11-03T11:06:51.102Z,15.10
2018-11-03T11:09:26.363Z,15.00
2018-11-03T11:12:01.529Z,15.00
2018-11-03T11:14:31.624Z,14.60
2018-11-03T11:17:02.603Z,14.40
2018-11-03T11:19:32.607Z,14.30
2018-11-03T11:22:02.726Z,14.00
2018-11-03T11:24:33.192Z,14.40
2018-11-03T11:27:03.093Z,14.80
2018-11-03T11:29:35.243Z,15.10
2018-11-03T11:32:05.946Z,15.20
2018-11-03T11:34:36.090Z,15.30
2018-11-03T11:37:06.006Z,15.10
2018-11-03T11:39:36.609Z,15.10
2018-11-03T11:42:07.419Z,15.50
2018-11-03T11:44:37.427Z,15.70
2018-11-03T11:47:07.719Z,15.90
2018-11-03T11:49:38.158Z,16.20
2018-11-03T11:52:08.473Z,16.40
2018-11-03T11:54:38.586Z,16.40
2018-11-03T11:57:09.009Z,16.60
2018-11-03T11:59:39.286Z,16.60
2018-11-03T12:02:21.343Z,16.70
2018-11-03T12:04:52.203Z,17.10
2018-11-03T12:07:22.475Z,17.50
2018-11-03T12:09:53.067Z,17.50
2018-11-03T12:12:23.455Z,17.10
2018-11-03T12:15:00.665Z,16.90
2018-11-03T12:17:30.925Z,17.00
2018-11-03T12:20:01.198Z,17.00
2018-11-03T12:22:31.432Z,17.30
2018-11-03T12:25:01.953Z,17.90
2018-11-03T12:27:32.315Z,18.10
2018-11-03T12:30:03.043Z,18.20
2018-11-03T12:32:33.357Z,18.50
2018-11-03T12:35:04.143Z,18.70
2018-11-03T12:37:34.355Z,18.80
2018-11-03T12:40:05.194Z,18.40
2018-11-03T12:42:36.123Z,18.50
2018-11-03T12:45:07.909Z,18.80
2018-11-03T12:47:38.723Z,18.70
2018-11-03T12:50:11.394Z,19.10
2018-11-03T12:52:43.721Z,19.70
2018-11-03T12:55:14.530Z,20.30
2018-11-03T12:57:45.242Z,20.10
2018-11-03T13:00:17.366Z,19.90
2018-11-03T13:02:48.781Z,20.10
2018-11-03T13:05:20.926Z,20.20
2018-11-03T13:07:51.778Z,20.10
2018-11-03T13:10:22.477Z,20.60
2018-11-03T13:12:54.008Z,20.90
2018-11-03T13:15:25.220Z,21.20
2018-11-03T13:17:57.193Z,20.80
2018-11-03T13:20:28.954Z,20.50
2018-11-03T13:23:04.139Z,20.30
2018-11-03T13:25:35.999Z,20.60
2018-11-03T13:28:07.485Z,21.40
2018-11-03T13:30:38.991Z,21.60
2018-11-03T13:33:09.740Z,21.80
2018-11-03T13:35:40.485Z,21.90
2018-11-03T13:38:11.920Z,22.30
2018-11-03T13:40:42.993Z,22.30
2018-11-03T13:43:14.302Z,22.00
2018-11-03T13:45:45.186Z,22.00
2018-11-03T13:48:16.778Z,22.10
2018-11-03T13:50:48.378Z,22.40
2018-11-03T13:53:19.983Z,22.80
2018-11-03T13:55:51.501Z,23.20
2018-11-03T13:58:22.649Z,23.10
2018-11-03T14:00:54.884Z,22.90
2018-11-03T14:03:26.454Z,23.00
2018-11-03T14:06:00.040Z,23.10
2018-11-03T14:08:31.701Z,23.10
2018-11-03T14:11:03.540Z,23.00
2018-11-03T14:13:38.441Z,22.80
2018-11-03T14:16:09.974Z,21.60
2018-11-03T14:18:40.973Z,20.90
2018-11-03T14:21:12.538Z,21.10
2018-11-03T14:23:43.442Z,21.60
2018-11-03T14:26:14.568Z,21.70
2018-11-03T14:28:46.314Z,21.90
2018-11-03T14:31:17.450Z,22.30
2018-11-03T14:33:49.191Z,22.40
2018-11-03T14:36:22.051Z,22.00
2018-11-03T14:38:53.428Z,22.10
2018-11-03T14:41:24.972Z,21.70
2018-11-03T14:43:56.627Z,21.50
2018-11-03T14:46:28.076Z,21.50
2018-11-03T14:48:59.629Z,21.10
2018-11-03T14:51:31.000Z,20.50
2018-11-03T14:54:03.928Z,19.80
2018-11-03T14:56:35.172Z,18.40
2018-11-03T14:59:07.324Z,17.20
2018-11-03T15:01:38.804Z,16.00
2018-11-03T15:04:10.535Z,14.90
2018-11-03T15:06:42.165Z,14.10
2018-11-03T15:09:13.861Z,13.40
2018-11-03T15:11:45.303Z,12.90
2018-11-03T15:14:16.754Z,12.50
2018-11-03T15:16:48.330Z,12.30
2018-11-03T15:19:19.299Z,12.00
2018-11-03T15:22:08.200Z,11.80
2018-11-03T15:24:49.861Z,11.50
2018-11-03T15:27:21.845Z,11.30
2018-11-03T15:29:53.134Z,11.20
2018-11-03T15:32:24.972Z,11.10
2018-11-03T15:35:02.448Z,10.90
2018-11-03T15:37:34.155Z,10.70
2018-11-03T15:40:05.941Z,10.40
2018-11-03T15:42:37.744Z,10.10
2018-11-03T15:45:13.420Z,9.80
2018-11-03T15:47:46.260Z,9.50
2018-11-03T15:50:18.708Z,9.60
2018-11-03T15:52:51.997Z,9.60
2018-11-03T15:55:29.736Z,9.50
2018-11-03T15:58:01.057Z,9.00
2018-11-03T16:00:33.911Z,8.80
2018-11-03T16:03:07.109Z,8.50
2018-11-03T16:05:39.404Z,8.10
2018-11-03T16:08:12.866Z,7.80
2018-11-03T16:10:44.640Z,7.90
2018-11-03T16:13:15.321Z,7.50
2018-11-03T16:15:46.960Z,7.10
2018-11-03T16:18:18.371Z,6.80
2018-11-03T16:20:49.481Z,6.60
2018-11-03T16:23:21.575Z,6.30
2018-11-03T16:25:53.638Z,6.10
2018-11-03T16:28:25.110Z,6.10
2018-11-03T16:30:55.581Z,5.90
2018-11-03T16:33:26.862Z,5.60
2018-11-03T16:36:00.590Z,5.60
2018-11-03T16:38:32.717Z,5.40
2018-11-03T16:41:03.997Z,4.90
2018-11-03T16:43:37.156Z,4.80
2018-11-03T16:46:09.348Z,4.60
2018-11-03T16:48:41.210Z,4.50
2018-11-03T16:51:12.832Z,4.40
2018-11-03T16:53:44.365Z,4.50
2018-11-03T16:56:16.633Z,4.40
2018-11-03T16:58:48.354Z,4.20
2018-11-03T17:01:19.455Z,4.10
2018-11-03T17:03:51.067Z,3.90
2018-11-03T17:06:22.269Z,3.80
2018-11-03T17:08:53.663Z,3.60
2018-11-03T17:11:30.104Z,3.50
2018-11-03T17:14:01.734Z,3.40
2018-11-03T17:16:33.332Z,3.20
2018-11-03T17:19:04.543Z,3.30
2018-11-03T17:21:36.453Z,3.30
2018-11-03T17:24:07.809Z,3.50
2018-11-03T17:26:39.189Z,3.60
2018-11-03T17:29:10.539Z,3.40
2018-11-03T17:31:42.788Z,3.30
2018-11-03T17:34:45.029Z,3.20
2018-11-03T17:37:16.138Z,3.10
2018-11-03T17:39:47.730Z,2.80
2018-11-03T17:42:20.277Z,2.80
2018-11-03T17:44:51.749Z,2.60
2018-11-03T17:47:23.127Z,2.60
2018-11-03T17:49:54.040Z,2.50
2018-11-03T17:52:25.337Z,2.60
2018-11-03T17:54:57.307Z,2.50
2018-11-03T17:57:34.385Z,2.40
2018-11-03T18:00:12.775Z,2.30
2018-11-03T18:02:46.804Z,2.20
2018-11-03T18:05:20.026Z,2.00
2018-11-03T18:07:51.005Z,2.00
2018-11-03T18:10:30.993Z,1.90
2018-11-03T18:13:03.205Z,1.90
2018-11-03T18:15:34.835Z,1.80
2018-11-03T18:18:06.872Z,1.80
2018-11-03T18:20:38.506Z,1.70
2018-11-03T18:23:10.445Z,1.60
2018-11-03T18:25:42.591Z,1.50
2018-11-03T18:28:21.577Z,1.40
2018-11-03T18:30:55.776Z,1.50
2018-11-03T18:33:29.083Z,1.50
2018-11-03T18:36:00.416Z,1.50
2018-11-03T18:38:36.864Z,1.40
2018-11-03T18:41:14.983Z,1.40
2018-11-03T18:43:49.922Z,1.30
2018-11-03T18:46:22.083Z,1.20
2018-11-03T18:48:54.936Z,1.20
2018-11-03T18:51:27.029Z,1.10
2018-11-03T18:54:00.530Z,1.10
2018-11-03T18:56:35.130Z,1.00
2018-11-03T18:59:11.837Z,1.00
2018-11-03T19:01:46.128Z,0.90
2018-11-03T19:04:20.843Z,0.80
2018-11-03T19:06:55.803Z,0.70
2018-11-03T19:09:29.522Z,0.70
2018-11-03T19:12:01.753Z,0.60
2018-11-03T19:14:34.258Z,0.60
2018-11-03T19:17:07.581Z,0.50
2018-11-03T19:19:40.646Z,0.40
2018-11-03T19:22:12.855Z,0.40
2018-11-03T19:24:45.065Z,0.30
2018-11-03T19:27:17.438Z,0.20
2018-11-03T19:29:49.022Z,0.20
2018-11-03T19:32:21.794Z,0.10
2018-11-03T19:37:52.195Z,0.00
2018-11-03T19:40:24.491Z,0.00
2018-11-03T19:42:56.245Z,-0.10
2018-11-03T19:45:27.570Z,-0.10
2018-11-03T19:47:59.157Z,-0.10
2018-11-03T19:50:34.717Z,-0.20
2018-11-03T19:53:06.275Z,-0.20
2018-11-03T19:55:37.204Z,-0.30
2018-11-03T19:58:08.609Z,-0.30
2018-11-03T20:00:40.709Z,-0.40
2018-11-03T20:03:12.862Z,-0.40
2018-11-03T20:05:45.042Z,-0.50
2018-11-03T20:08:16.716Z,-0.60
2018-11-03T20:10:49.188Z,-0.60
2018-11-03T20:13:21.301Z,-0.70
2018-11-03T20:15:53.423Z,-0.70
2018-11-03T20:18:24.155Z,-0.70
2018-11-03T20:20:55.668Z,-0.70
2018-11-03T20:23:26.662Z,-0.70
2018-11-03T20:25:59.489Z,-0.70
2018-11-03T20:28:31.033Z,-0.80
2018-11-03T20:31:02.545Z,-0.80
2018-11-03T20:33:34.841Z,-0.80
2018-11-03T20:36:07.088Z,-0.90
2018-11-03T20:38:39.402Z,-0.90
2018-11-03T20:41:12.241Z,-1.00
2018-11-03T20:43:52.857Z,-1.00
2018-11-03T20:46:30.538Z,-1.10
2018-11-03T20:49:02.285Z,-1.10
2018-11-03T20:51:34.345Z,-1.10
2018-11-03T20:54:13.326Z,-1.10
2018-11-03T20:56:45.629Z,-1.10
2018-11-03T20:59:17.325Z,-1.10
2018-11-03T21:01:50.378Z,-1.10
2018-11-03T21:04:23.877Z,-1.10
2018-11-03T21:06:58.088Z,-1.10
2018-11-03T21:09:30.334Z,-1.10
2018-11-03T21:12:01.711Z,-1.20
2018-11-03T21:14:33.636Z,-1.10
2018-11-03T21:17:05.210Z,-1.20
2018-11-03T21:19:37.152Z,-1.20
2018-11-03T21:22:12.944Z,-1.20
2018-11-03T21:24:44.712Z,-1.20
2018-11-03T21:27:33.716Z,-1.20
2018-11-03T21:30:05.734Z,-1.30
2018-11-03T21:32:37.681Z,-1.30
2018-11-03T21:35:15.332Z,-1.30
2018-11-03T21:37:48.015Z,-1.40
2018-11-03T21:40:21.406Z,-1.40
2018-11-03T21:42:54.923Z,-1.50
2018-11-03T21:45:27.335Z,-1.50
2018-11-03T21:48:00.495Z,-1.60
2018-11-03T21:50:32.073Z,-1.60
2018-11-03T21:53:07.854Z,-1.60
2018-11-03T21:55:40.589Z,-1.50
2018-11-03T21:58:12.661Z,-1.50
2018-11-03T22:00:44.478Z,-1.50
2018-11-03T22:03:16.850Z,-1.50
2018-11-03T22:05:49.247Z,-1.60
2018-11-03T22:08:22.095Z,-1.60
2018-11-03T22:10:53.984Z,-1.60
2018-11-03T22:13:26.228Z,-1.60
2018-11-03T22:15:57.100Z,-1.60
2018-11-03T22:18:28.689Z,-1.60
2018-11-03T22:21:01.219Z,-1.60
2018-11-03T22:23:35.661Z,-1.60
2018-11-03T22:26:07.606Z,-1.70
2018-11-03T22:28:38.926Z,-1.70
2018-11-03T22:31:11.312Z,-1.70
2018-11-03T22:33:43.539Z,-1.70
2018-11-03T22:36:15.116Z,-1.80
2018-11-03T22:38:47.067Z,-1.80
2018-11-03T22:41:18.985Z,-1.80
2018-11-03T22:43:50.661Z,-1.80
2018-11-03T22:46:21.669Z,-1.70
2018-11-03T22:48:53.486Z,-1.60
2018-11-03T22:51:27.495Z,-1.50
2018-11-03T22:53:59.253Z,-1.60
2018-11-03T22:56:31.135Z,-1.70
2018-11-03T22:59:03.911Z,-1.70
2018-11-03T23:01:36.157Z,-1.70
2018-11-03T23:04:08.171Z,-1.70
2018-11-03T23:06:40.430Z,-1.80
2018-11-03T23:09:12.538Z,-1.80
2018-11-03T23:11:44.555Z,-1.90
2018-11-03T23:14:17.000Z,-1.90
2018-11-03T23:16:48.487Z,-2.00
2018-11-03T23:19:19.663Z,-2.00
2018-11-03T23:21:51.020Z,-2.00
2018-11-03T23:24:22.645Z,-2.00
2018-11-03T23:26:53.783Z,-2.10
2018-11-03T23:29:25.839Z,-2.10
2018-11-03T23:31:57.614Z,-2.00
2018-11-03T23:34:30.199Z,-2.00
2018-11-03T23:37:02.075Z,-2.10
2018-11-03T23:39:40.078Z,-2.10
2018-11-03T23:42:11.652Z,-2.00
2018-11-03T23:44:42.987Z,-2.00
2018-11-03T23:47:14.243Z,-2.10
2018-11-03T23:49:45.664Z,-2.10
2018-11-03T23:52:21.343Z,-2.10
2018-11-03T23:54:52.790Z,-2.20
2018-11-03T23:57:24.414Z,-2.20
2018-11-03T23:59:56.032Z,-2.20
